Bow, New Hampshire
Current Conditions -  °F | °C
As of 12:51 AM on Thursday 23 Oct 2014 (Local Time) from KCON Reporting Station
Light Rain Light Rain  
Wind Chill: 40°   Ceiling: 1600
Heat Index: 47°   Visibility: 10mi
Dew Point: 45°   Wind: 16mph
Humidity: 93%   Direction: 10°N
Pressure: 29.88"   Gusts: 23mph
Location:  43.14°N, 71.54°W
Report Text: KCON 230451Z AUTO 01014G20KT 10SM -RA OVC016 08/07 A2988 RMK AO2 SLP121 P0007 T00830072 401000083
Loading
Personal Weather Stations






























Interactive Weather Map
Tropical Storm Tracking
New forecast layout! Learn more

10-Day Weather Forecast

Advertisements
Track Severe Weather on mobile